Time;durP1;ratioP1;P1;durP2;ratioP2;P2;SDS_P1;SDS_P2;PMS_P1;PMS_P2;Temp;Humidity;BMP_temperature;BMP_pressure;BME280_temperature;BME280_humidity;BME280_pressure;Samples;Min_cycle;Max_cycle;Signal;HPM_P1;HPM_P2
2023/03/24 06:20:38;;;;;;;;;;;;;;;14.51;69.78;96463.28;4214800;27;10319;-77
2023/03/24 06:22:41;;;;;;;;;;;;;;;14.78;69.27;96465.53;4215678;28;5808;-78
2023/03/24 06:24:45;;;;;;;;;;;;;;;14.99;68.75;96464.22;4211188;28;5689;-77
2023/03/24 06:26:48;;;;;;;;;;;;;;;15.19;68.43;96456.72;4210798;28;6057;-78
2023/03/24 06:28:51;;;;;;;;;;;;;;;15.34;67.96;96445.59;4213349;28;5693;-78
2023/03/24 06:30:55;;;;;;;;;;;;;;;15.46;68.00;96450.94;4215591;28;5685;-78
2023/03/24 06:32:58;;;;;;;;;;;;;;;15.55;67.40;96445.03;4214946;28;6474;-78
2023/03/24 06:35:01;;;;;;;;;;;;;;;15.65;67.35;96439.94;4212966;28;5695;-77
2023/03/24 06:37:06;;;;;;;;;;;;;;;15.72;67.06;96445.16;4214791;28;5681;-77
2023/03/24 06:39:09;;;;;;;;;;;;;;;15.79;67.09;96437.03;4206627;28;5702;-77
2023/03/24 06:41:12;;;;;;;;;;;;;;;15.82;66.82;96434.69;4204151;28;6531;-78
2023/03/24 06:43:15;;;;;;;;;;;;;;;15.86;66.79;96427.88;4209245;28;5804;-79
2023/03/24 06:45:18;;;;;;;;;;;;;;;15.90;66.48;96441.53;4215419;28;5756;-78
2023/03/24 06:47:21;;;;;;;;;;;;;;;15.93;66.63;96433.88;4215126;28;5726;-78
2023/03/24 06:49:24;;;;;;;;;;;;;;;15.95;66.37;96445.09;4215649;28;5710;-78
2023/03/24 06:51:27;;;;;;;;;;;;;;;15.97;66.27;96444.91;4215615;28;5690;-78
2023/03/24 06:53:31;;;;;;;;;;;;;;;15.98;66.14;96436.66;4215474;28;5685;-78
2023/03/24 06:55:34;;;;;;;;;;;;;;;16.00;66.09;96436.41;4215024;28;5708;-77
2023/03/24 06:57:36;;;;;;;;;;;;;;;16.01;66.05;96440.69;4215039;28;5777;-78
2023/03/24 06:59:40;;;;;;;;;;;;;;;16.05;66.09;96433.03;4213895;28;5701;-79
2023/03/24 07:01:43;;;;;;;;;;;;;;;16.08;65.96;96438.69;4211408;28;5102;-78
2023/03/24 07:03:47;;;;;;;;;;;;;;;16.11;65.81;96432.91;4214399;28;5699;-77
2023/03/24 07:05:50;;;;;;;;;;;;;;;16.11;65.79;96440.91;4213820;28;5826;-78
2023/03/24 07:07:53;;;;;;;;;;;;;;;16.11;65.54;96440.09;4214786;28;5710;-78
2023/03/24 07:10:18;;;;;;;;;;;;;;;16.12;65.49;96445.19;4212685;28;5787;-79
2023/03/24 07:12:21;;;;;;;;;;;;;;;16.18;65.24;96449.56;4214945;28;5839;-78
2023/03/24 07:14:25;;;;;;;;;;;;;;;16.22;65.41;96447.25;4205280;28;5727;-78
2023/03/24 07:16:28;;;;;;;;;;;;;;;16.24;65.28;96453.16;4220779;28;5679;-78
2023/03/24 07:18:31;;;;;;;;;;;;;;;16.27;64.99;96458.00;4213050;28;5784;-78
2023/03/24 07:20:34;;;;;;;;;;;;;;;16.26;65.05;96459.88;4228963;28;5608;-78
2023/03/24 07:22:36;;;;;;;;;;;;;;;16.27;64.87;96468.69;4231333;28;5620;-78
2023/03/24 07:24:39;;;;;;;;;;;;;;;16.25;64.91;96455.59;4227699;28;6402;-78
2023/03/24 07:26:44;;;;;;;;;;;;;;;16.26;65.00;96469.72;4231545;28;5652;-78
2023/03/24 07:28:47;;;;;;;;;;;;;;;16.25;65.00;96476.91;4231406;28;5611;-78
2023/03/24 07:30:51;;;;;;;;;;;;;;;16.26;64.85;96473.19;4226334;28;5608;-78
2023/03/24 07:32:57;;;;;;;;;;;;;;;16.23;64.68;96479.03;4220121;28;5623;-78
2023/03/24 07:35:00;;;;;;;;;;;;;;;16.24;64.65;96477.16;4219484;28;5633;-78
2023/03/24 07:37:03;;;;;;;;;;;;;;;16.23;64.54;96489.69;4201073;28;5729;-78
2023/03/24 07:39:07;;;;;;;;;;;;;;;16.22;64.53;96493.41;4218777;28;5623;-78
2023/03/24 07:41:10;;;;;;;;;;;;;;;16.22;64.51;96498.75;4215593;28;5674;-79
2023/03/24 07:43:14;;;;;;;;;;;;;;;16.22;64.28;96496.06;4220263;28;5609;-78
2023/03/24 07:45:18;;;;;;;;;;;;;;;16.22;64.40;96489.94;4205108;28;5627;-77
2023/03/24 07:47:21;;;;;;;;;;;;;;;16.25;64.35;96492.13;4218670;28;5739;-79
2023/03/24 07:49:23;;;;;;;;;;;;;;;16.25;64.19;96484.91;4220009;28;6451;-78
2023/03/24 07:51:26;;;;;;;;;;;;;;;16.26;64.05;96489.22;4219718;28;5773;-78
2023/03/24 07:53:29;;;;;;;;;;;;;;;16.24;63.71;96469.16;4219485;28;7632;-78
2023/03/24 07:55:32;;;;;;;;;;;;;;;16.23;63.92;96478.22;4219295;28;5605;-78
2023/03/24 07:57:36;;;;;;;;;;;;;;;16.23;63.82;96473.69;4216559;28;5638;-77
2023/03/24 07:59:40;;;;;;;;;;;;;;;16.26;63.71;96473.19;4213396;28;5636;-79
2023/03/24 08:01:44;;;;;;;;;;;;;;;16.27;63.68;96472.16;4208253;28;5619;-78
2023/03/24 08:03:53;;;;;;;;;;;;;;;16.27;63.47;96474.81;4215147;28;5867;-78
2023/03/24 08:05:56;;;;;;;;;;;;;;;16.25;63.55;96468.91;4218904;28;5663;-78
2023/03/24 08:07:59;;;;;;;;;;;;;;;16.26;63.29;96462.53;4219798;28;5608;-78
2023/03/24 08:10:05;;;;;;;;;;;;;;;16.25;63.35;96466.25;4219255;28;5084;-77
2023/03/24 08:12:08;;;;;;;;;;;;;;;16.26;63.26;96459.06;4209974;28;5664;-78
2023/03/24 08:14:22;;;;;;;;;;;;;;;16.23;63.12;96463.00;4220166;28;5624;-79
2023/03/24 08:16:29;;;;;;;;;;;;;;;16.25;62.96;96462.78;4219849;28;5616;-77
2023/03/24 08:18:33;;;;;;;;;;;;;;;16.26;63.08;96457.19;4218732;28;5944;-77
2023/03/24 08:20:36;;;;;;;;;;;;;;;16.28;63.10;96464.97;4185262;28;5730;-74
2023/03/24 08:22:40;;;;;;;;;;;;;;;16.22;63.15;96461.41;4185812;28;5719;-74
2023/03/24 08:24:43;;;;;;;;;;;;;;;16.15;63.08;96468.72;4186093;28;5723;-73
2023/03/24 08:26:46;;;;;;;;;;;;;;;16.08;63.17;96465.34;4182904;28;6854;-74
2023/03/24 08:28:58;;;;;;;;;;;;;;;16.09;63.26;96467.00;4173251;28;5751;-73
2023/03/24 08:31:01;;;;;;;;;;;;;;;16.12;62.87;96465.72;4181855;28;5796;-73
2023/03/24 08:33:05;;;;;;;;;;;;;;;16.12;62.87;96466.53;4195426;28;6423;-71
2023/03/24 08:35:11;;;;;;;;;;;;;;;16.16;62.86;96462.31;4174313;28;5703;-74
2023/03/24 08:37:14;;;;;;;;;;;;;;;16.20;62.67;96458.16;4185143;28;5896;-74
2023/03/24 08:39:17;;;;;;;;;;;;;;;16.23;62.58;96451.53;4185337;28;5732;-74
2023/03/24 08:41:20;;;;;;;;;;;;;;;16.24;62.36;96456.63;4189814;28;5707;-74
2023/03/24 08:43:24;;;;;;;;;;;;;;;16.22;62.41;96453.41;4184664;28;5718;-74
2023/03/24 08:45:30;;;;;;;;;;;;;;;16.24;62.49;96445.16;4185689;28;5718;-75
2023/03/24 08:47:32;;;;;;;;;;;;;;;16.30;62.24;96447.66;4185890;28;5714;-75
2023/03/24 08:49:37;;;;;;;;;;;;;;;16.32;62.13;96458.13;4181915;28;5735;-75
2023/03/24 08:51:40;;;;;;;;;;;;;;;16.35;61.98;96459.50;4180387;28;5735;-75
2023/03/24 08:53:43;;;;;;;;;;;;;;;16.38;61.88;96459.00;4184668;28;5785;-74
2023/03/24 08:55:46;;;;;;;;;;;;;;;16.42;61.80;96455.66;4184923;28;5845;-75
2023/03/24 08:57:49;;;;;;;;;;;;;;;16.47;61.71;96450.41;4184794;28;5752;-74
2023/03/24 08:59:52;;;;;;;;;;;;;;;16.51;61.63;96456.06;4185179;28;5203;-76
2023/03/24 09:01:55;;;;;;;;;;;;;;;16.53;61.58;96456.63;4185572;28;5797;-75
2023/03/24 09:03:58;;;;;;;;;;;;;;;16.56;61.52;96450.84;4186301;28;5854;-75
2023/03/24 09:06:02;;;;;;;;;;;;;;;16.57;61.50;96445.25;4183185;28;5829;-75
2023/03/24 09:08:06;;;;;;;;;;;;;;;16.55;61.36;96446.56;4187225;28;5817;-75
2023/03/24 09:10:10;;;;;;;;;;;;;;;16.55;61.47;96451.88;4188049;28;5727;-73
2023/03/24 09:12:13;;;;;;;;;;;;;;;16.56;61.31;96456.16;4188160;28;5813;-75
2023/03/24 09:14:17;;;;;;;;;;;;;;;16.59;61.31;96455.69;4184174;28;6372;-73
2023/03/24 09:16:22;;;;;;;;;;;;;;;16.66;61.26;96453.69;4184588;28;5878;-74
2023/03/24 09:18:25;;;;;;;;;;;;;;;16.70;61.06;96452.19;4183599;28;5710;-74
2023/03/24 09:20:28;;;;;;;;;;;;;;;16.78;60.90;96451.00;4207729;28;5731;-74
2023/03/24 09:22:32;;;;;;;;;;;;;;;16.85;60.72;96448.97;4217563;28;5638;-74
2023/03/24 09:24:35;;;;;;;;;;;;;;;16.94;60.67;96436.84;4217672;28;5832;-75
2023/03/24 09:26:38;;;;;;;;;;;;;;;16.99;60.49;96426.25;4212559;28;5820;-74
2023/03/24 09:28:41;;;;;;;;;;;;;;;17.03;60.39;96418.56;4215217;28;6063;-74
2023/03/24 09:30:44;;;;;;;;;;;;;;;17.06;60.35;96426.09;4212439;28;5596;-75
2023/03/24 09:32:47;;;;;;;;;;;;;;;17.08;60.45;96419.44;4209141;28;5624;-74
2023/03/24 09:34:50;;;;;;;;;;;;;;;17.08;60.40;96426.63;4217533;28;5891;-74
2023/03/24 09:36:53;;;;;;;;;;;;;;;17.10;60.45;96429.88;4217810;28;5686;-74
2023/03/24 09:38:57;;;;;;;;;;;;;;;17.11;60.12;96412.81;4217613;28;5769;-75
2023/03/24 09:41:02;;;;;;;;;;;;;;;17.12;60.28;96425.13;4215017;28;5972;-74
2023/03/24 09:43:08;;;;;;;;;;;;;;;17.12;60.14;96417.13;4210182;28;5597;-74
2023/03/24 09:45:15;;;;;;;;;;;;;;;17.11;60.05;96421.66;4215854;28;6463;-74
2023/03/24 09:47:26;;;;;;;;;;;;;;;17.14;60.04;96428.34;4217476;28;5605;-74
2023/03/24 09:49:35;;;;;;;;;;;;;;;17.20;60.03;96418.53;4217082;28;5771;-74
2023/03/24 09:51:42;;;;;;;;;;;;;;;17.21;59.67;96430.84;4210205;28;5763;-74
2023/03/24 09:53:52;;;;;;;;;;;;;;;17.25;59.46;96427.47;4214318;28;5766;-70
2023/03/24 09:56:02;;;;;;;;;;;;;;;17.25;59.74;96416.78;4210434;28;5720;-70
2023/03/24 09:58:08;;;;;;;;;;;;;;;17.31;59.66;96414.97;4214501;28;5732;-74
2023/03/24 10:00:20;;;;;;;;;;;;;;;17.35;59.52;96422.28;4213378;28;5707;-68
2023/03/24 10:02:28;;;;;;;;;;;;;;;17.40;59.45;96424.19;4208367;28;5725;-70
2023/03/24 10:04:32;;;;;;;;;;;;;;;17.42;59.40;96422.91;4216260;28;5728;-68
2023/03/24 10:06:38;;;;;;;;;;;;;;;17.41;59.35;96421.28;4215494;28;5608;-67
2023/03/24 10:08:43;;;;;;;;;;;;;;;17.43;59.20;96416.50;4216557;28;5839;-70
2023/03/24 10:10:57;;;;;;;;;;;;;;;17.43;59.13;96413.81;4217188;28;5714;-69
2023/03/24 10:13:06;;;;;;;;;;;;;;;17.42;59.22;96425.56;4215399;28;5613;-71
2023/03/24 10:15:20;;;;;;;;;;;;;;;17.41;59.11;96433.84;4200806;28;5627;-72
2023/03/24 10:17:39;;;;;;;;;;;;;;;17.35;58.91;96446.31;4201594;28;5635;-72
2023/03/24 10:19:48;;;;;;;;;;;;;;;17.26;59.14;96437.09;4217288;28;5717;-72
2023/03/24 10:22:00;;;;;;;;;;;;;;;17.23;59.04;96455.47;4216143;28;6976;-72
2023/03/24 10:24:10;;;;;;;;;;;;;;;17.18;58.84;96424.94;4185057;28;5722;-71
2023/03/24 10:26:28;;;;;;;;;;;;;;;17.10;58.88;96435.22;4201167;28;5619;-72
2023/03/24 10:28:41;;;;;;;;;;;;;;;17.02;58.90;96447.13;4183029;28;6684;-71
2023/03/24 10:30:45;;;;;;;;;;;;;;;17.00;58.83;96445.75;4210869;28;5609;-72
2023/03/24 10:32:51;;;;;;;;;;;;;;;16.96;58.84;96450.75;4214936;28;5622;-72
2023/03/24 10:35:06;;;;;;;;;;;;;;;16.91;58.98;96458.69;4203904;28;5757;-72
2023/03/24 10:37:11;;;;;;;;;;;;;;;16.90;58.90;96459.75;4209140;28;5631;-72
2023/03/24 10:39:16;;;;;;;;;;;;;;;16.91;58.72;96464.03;4216270;28;5639;-71
2023/03/24 10:41:29;;;;;;;;;;;;;;;16.91;58.78;96466.69;4214409;28;5750;-72
2023/03/24 10:43:35;;;;;;;;;;;;;;;16.90;58.68;96462.41;4216347;28;5698;-72
2023/03/24 10:45:42;;;;;;;;;;;;;;;16.92;58.94;96464.84;4213202;28;5678;-72
2023/03/24 10:47:48;;;;;;;;;;;;;;;16.96;58.85;96471.31;4200536;28;5734;-71
2023/03/24 10:49:54;;;;;;;;;;;;;;;16.98;58.64;96463.84;4211945;28;5615;-71
2023/03/24 10:52:02;;;;;;;;;;;;;;;17.01;58.61;96468.75;4211124;28;5617;-72
2023/03/24 10:54:15;;;;;;;;;;;;;;;17.04;58.63;96455.69;4215976;28;5633;-71
2023/03/24 10:56:37;;;;;;;;;;;;;;;17.05;58.63;96446.63;4209754;28;5834;-72
2023/03/24 10:58:43;;;;;;;;;;;;;;;17.09;58.62;96465.66;4191002;28;5857;-71
2023/03/24 11:00:48;;;;;;;;;;;;;;;17.08;58.53;96477.38;4210502;28;5859;-72
2023/03/24 11:02:57;;;;;;;;;;;;;;;17.09;58.67;96476.34;4215167;28;6292;-72
2023/03/24 11:05:04;;;;;;;;;;;;;;;17.11;58.41;96474.25;4194940;28;5693;-71
2023/03/24 11:07:16;;;;;;;;;;;;;;;17.11;58.24;96469.72;4218325;28;5632;-71
2023/03/24 11:09:21;;;;;;;;;;;;;;;17.09;58.43;96471.78;4211722;28;5638;-71
2023/03/24 11:11:32;;;;;;;;;;;;;;;17.08;58.28;96466.69;4215852;28;5633;-69
2023/03/24 11:13:35;;;;;;;;;;;;;;;17.07;58.36;96468.56;4219297;28;5612;-68
2023/03/24 11:15:53;;;;;;;;;;;;;;;17.10;58.24;96470.78;4219230;28;5768;-69
2023/03/24 11:17:58;;;;;;;;;;;;;;;17.10;58.20;96473.44;4220164;28;5633;-67
2023/03/24 11:20:04;;;;;;;;;;;;;;;17.09;58.29;96481.69;4219356;28;5601;-67
2023/03/24 11:22:07;;;;;;;;;;;;;;;17.07;58.04;96476.56;4217876;28;5829;-67
2023/03/24 11:24:14;;;;;;;;;;;;;;;17.08;58.19;96475.53;4219119;28;5621;-69
2023/03/24 11:26:20;;;;;;;;;;;;;;;17.05;57.99;96472.53;4219693;28;5625;-69
2023/03/24 11:28:27;;;;;;;;;;;;;;;17.06;58.11;96480.31;4213119;28;5605;-69
2023/03/24 11:30:34;;;;;;;;;;;;;;;17.04;57.88;96481.59;4219842;28;5608;-69
2023/03/24 11:32:46;;;;;;;;;;;;;;;17.02;58.08;96468.50;4219934;28;5597;-69
2023/03/24 11:35:03;;;;;;;;;;;;;;;16.98;58.07;96469.19;4219651;28;5765;-70
2023/03/24 11:37:12;;;;;;;;;;;;;;;16.97;58.12;96472.91;4219814;28;5804;-70
2023/03/24 11:39:18;;;;;;;;;;;;;;;16.99;57.96;96481.50;4216353;28;5627;-69
2023/03/24 11:41:22;;;;;;;;;;;;;;;16.98;57.96;96475.34;4218013;28;5690;-69
2023/03/24 11:43:27;;;;;;;;;;;;;;;16.98;57.93;96477.22;4219287;28;5608;-70
2023/03/24 11:45:38;;;;;;;;;;;;;;;16.98;57.81;96483.34;4218729;28;5645;-70
2023/03/24 11:47:42;;;;;;;;;;;;;;;16.97;57.96;96481.75;4218770;28;5717;-68
2023/03/24 11:49:54;;;;;;;;;;;;;;;16.95;57.65;96480.38;4191163;28;5901;-71
2023/03/24 11:51:58;;;;;;;;;;;;;;;16.87;57.65;96479.72;4211222;28;5608;-72
2023/03/24 11:54:04;;;;;;;;;;;;;;;16.88;57.76;96489.34;4219618;28;5706;-71
2023/03/24 11:56:13;;;;;;;;;;;;;;;16.86;57.61;96498.63;4215760;28;5840;-71
2023/03/24 11:58:27;;;;;;;;;;;;;;;16.80;57.64;96495.06;4219492;28;6313;-71
2023/03/24 12:00:35;;;;;;;;;;;;;;;16.79;57.62;96488.13;4212222;28;5839;-71
2023/03/24 12:02:55;;;;;;;;;;;;;;;16.81;57.82;96496.69;4219497;28;6390;-70
2023/03/24 12:05:21;;;;;;;;;;;;;;;16.85;57.82;96497.00;4219536;28;5645;-71
2023/03/24 12:07:49;;;;;;;;;;;;;;;16.87;57.47;96485.06;4219362;28;5684;-71
2023/03/24 12:09:56;;;;;;;;;;;;;;;16.87;57.45;96489.56;4218950;28;5632;-72
2023/03/24 12:12:21;;;;;;;;;;;;;;;16.88;57.63;96497.38;4219435;28;5244;-70
2023/03/24 12:14:35;;;;;;;;;;;;;;;16.90;57.62;96496.31;4219493;28;7639;-70
2023/03/24 12:16:50;;;;;;;;;;;;;;;16.88;57.46;96496.56;4219310;28;5616;-71
2023/03/24 12:19:11;;;;;;;;;;;;;;;16.84;57.74;96506.06;4218799;28;5764;-70
2023/03/24 12:21:23;;;;;;;;;;;;;;;16.79;57.55;96504.13;4219168;28;6336;-71
2023/03/24 12:23:37;;;;;;;;;;;;;;;16.76;57.58;96493.09;4211192;28;5604;-71
2023/03/24 12:25:58;;;;;;;;;;;;;;;16.73;57.58;96494.41;4218845;28;5723;-71
2023/03/24 12:28:19;;;;;;;;;;;;;;;16.75;57.52;96504.84;4219270;28;5608;-71
2023/03/24 12:30:30;;;;;;;;;;;;;;;16.76;57.44;96499.28;4200871;28;5769;-70
2023/03/24 12:32:47;;;;;;;;;;;;;;;16.76;57.90;96493.94;4219077;28;5728;-70
2023/03/24 12:35:21;;;;;;;;;;;;;;;16.77;57.66;96502.75;4219295;28;5676;-71
2023/03/24 12:37:31;;;;;;;;;;;;;;;16.77;57.62;96506.25;4219007;28;5604;-70
2023/03/24 12:39:43;;;;;;;;;;;;;;;16.75;57.73;96505.66;4218876;28;6311;-71
2023/03/24 12:41:59;;;;;;;;;;;;;;;16.73;57.74;96504.28;4218085;28;5620;-70
2023/03/24 12:44:31;;;;;;;;;;;;;;;16.72;57.84;96503.47;4218919;28;5625;-70
2023/03/24 12:46:44;;;;;;;;;;;;;;;16.72;57.87;96497.31;4192331;28;5643;-70
2023/03/24 12:49:09;;;;;;;;;;;;;;;16.74;57.73;96488.00;4202126;28;5654;-69
2023/03/24 12:51:26;;;;;;;;;;;;;;;16.74;57.99;96496.03;4202376;28;6438;-71
2023/03/24 12:53:52;;;;;;;;;;;;;;;16.72;57.97;96494.66;4211572;28;5605;-71
2023/03/24 12:55:59;;;;;;;;;;;;;;;16.72;58.02;96494.66;4218288;28;5691;-71
2023/03/24 12:58:09;;;;;;;;;;;;;;;16.75;57.88;96488.81;4218749;28;6301;-70
2023/03/24 13:00:18;;;;;;;;;;;;;;;16.76;58.20;96493.09;4218804;28;5719;-71
2023/03/24 13:02:27;;;;;;;;;;;;;;;16.75;58.13;96497.63;4218957;28;5636;-71
2023/03/24 13:04:33;;;;;;;;;;;;;;;16.73;58.17;96494.41;4218528;28;5948;-71
2023/03/24 13:06:44;;;;;;;;;;;;;;;16.74;58.17;96489.88;4218936;28;5737;-71
2023/03/24 13:09:00;;;;;;;;;;;;;;;16.74;58.17;96501.34;4218408;28;5632;-71
2023/03/24 13:11:10;;;;;;;;;;;;;;;16.71;58.10;96504.50;4218294;28;5645;-71
2023/03/24 13:13:33;;;;;;;;;;;;;;;16.67;58.17;96511.34;4218307;28;5167;-71
2023/03/24 13:15:41;;;;;;;;;;;;;;;16.58;58.30;96510.09;4218389;28;5706;-71
2023/03/24 13:17:50;;;;;;;;;;;;;;;16.56;58.51;96498.88;4218321;28;5605;-71
2023/03/24 13:19:56;;;;;;;;;;;;;;;16.53;58.71;96494.78;4218152;28;6320;-71
2023/03/24 13:22:04;;;;;;;;;;;;;;;16.51;58.61;96485.41;4217994;28;7308;-71
2023/03/24 13:24:08;;;;;;;;;;;;;;;16.49;58.70;96491.00;4218080;28;5341;-71
2023/03/24 13:26:37;;;;;;;;;;;;;;;16.47;58.67;96481.59;4218228;28;7702;-71
2023/03/24 13:28:49;;;;;;;;;;;;;;;16.48;58.63;96485.91;4217715;28;5618;-70
2023/03/24 13:30:52;;;;;;;;;;;;;;;16.42;58.60;96486.84;4218233;28;5616;-70
2023/03/24 13:32:59;;;;;;;;;;;;;;;16.42;58.54;96482.34;4218076;28;5816;-70
2023/03/24 13:35:12;;;;;;;;;;;;;;;16.44;58.57;96484.75;4218062;28;5629;-70
2023/03/24 13:37:21;;;;;;;;;;;;;;;16.46;58.73;96482.66;4217778;28;5616;-70
2023/03/24 13:39:26;;;;;;;;;;;;;;;16.48;58.51;96491.22;4218059;28;5628;-70
2023/03/24 13:41:36;;;;;;;;;;;;;;;16.48;58.66;96489.38;4217929;28;5817;-71
2023/03/24 13:43:48;;;;;;;;;;;;;;;16.47;58.56;96495.75;4217996;28;6337;-70
2023/03/24 13:45:58;;;;;;;;;;;;;;;16.47;58.44;96485.09;4218279;28;5611;-70
2023/03/24 13:48:16;;;;;;;;;;;;;;;16.45;58.36;96486.38;4217993;28;6317;-70
2023/03/24 13:50:19;;;;;;;;;;;;;;;16.46;58.31;96493.34;4217841;28;5656;-70
2023/03/24 13:52:28;;;;;;;;;;;;;;;16.46;58.26;96480.00;4209419;28;5668;-70
2023/03/24 13:54:35;;;;;;;;;;;;;;;16.47;58.26;96481.59;4217912;28;5741;-70
2023/03/24 13:56:41;;;;;;;;;;;;;;;16.47;58.26;96495.75;4217448;28;5624;-70
2023/03/24 13:58:48;;;;;;;;;;;;;;;16.46;58.06;96488.00;4218005;28;5605;-70
2023/03/24 14:01:19;;;;;;;;;;;;;;;16.46;58.22;96501.34;4217899;28;5608;-70
2023/03/24 14:03:32;;;;;;;;;;;;;;;16.46;58.07;96498.66;4217687;28;5835;-70
2023/03/24 14:05:58;;;;;;;;;;;;;;;16.46;57.96;96490.66;4200938;28;5626;-70
2023/03/24 14:08:17;;;;;;;;;;;;;;;16.44;57.98;96490.91;4206261;28;5629;-70
2023/03/24 14:10:38;;;;;;;;;;;;;;;16.44;58.14;96492.75;4217353;28;5625;-71
2023/03/24 14:12:52;;;;;;;;;;;;;;;16.44;58.26;96495.44;4185757;28;5948;-71
2023/03/24 14:15:13;;;;;;;;;;;;;;;16.44;57.82;96495.44;4217670;28;5076;-71
2023/03/24 14:17:16;;;;;;;;;;;;;;;16.44;57.82;96485.56;4217544;28;5907;-71
2023/03/24 14:19:25;;;;;;;;;;;;;;;16.43;57.76;96494.63;4217187;28;5775;-71
2023/03/24 14:21:30;;;;;;;;;;;;;;;16.43;57.73;96493.81;4217796;28;5702;-71
2023/03/24 14:23:40;;;;;;;;;;;;;;;16.44;57.70;96500.78;4217406;28;6291;-71
2023/03/24 14:25:54;;;;;;;;;;;;;;;16.44;57.78;96495.44;4217237;28;5617;-71
2023/03/24 14:28:15;;;;;;;;;;;;;;;16.42;57.75;96508.16;4217399;28;5601;-71
2023/03/24 14:30:21;;;;;;;;;;;;;;;16.41;57.91;96501.22;4217464;28;5710;-71
2023/03/24 14:32:24;;;;;;;;;;;;;;;16.41;57.55;96503.88;4217420;28;5761;-71
2023/03/24 14:34:28;;;;;;;;;;;;;;;16.37;57.79;96511.56;4217372;28;5596;-71
2023/03/24 14:36:38;;;;;;;;;;;;;;;16.37;57.72;96518.75;4217541;28;5725;-72
2023/03/24 14:38:45;;;;;;;;;;;;;;;16.38;57.54;96501.69;4217499;28;5631;-72
2023/03/24 14:40:49;;;;;;;;;;;;;;;16.37;57.59;96506.22;4217655;28;5620;-71
2023/03/24 14:43:17;;;;;;;;;;;;;;;16.32;57.84;96518.66;4220888;28;5840;-71
2023/03/24 14:45:50;;;;;;;;;;;;;;;16.30;57.69;96517.00;4211460;28;5589;-71
2023/03/24 14:47:59;;;;;;;;;;;;;;;16.30;57.65;96505.53;4202685;28;5690;-71
2023/03/24 14:50:12;;;;;;;;;;;;;;;16.27;57.92;96501.50;4221041;28;5724;-71
2023/03/24 14:52:20;;;;;;;;;;;;;;;16.26;57.78;96501.72;4220745;28;5712;-71
2023/03/24 14:54:32;;;;;;;;;;;;;;;16.25;57.72;96503.59;4203794;28;6437;-71
2023/03/24 14:56:40;;;;;;;;;;;;;;;16.25;57.89;96514.25;4211196;28;5758;-70
2023/03/24 14:58:46;;;;;;;;;;;;;;;16.22;58.04;96504.06;4207128;28;5737;-70
2023/03/24 15:00:55;;;;;;;;;;;;;;;16.21;58.01;96507.78;4214533;28;5617;-70
2023/03/24 15:03:22;;;;;;;;;;;;;;;16.22;58.07;96503.25;4199067;28;5099;-70
2023/03/24 15:05:29;;;;;;;;;;;;;;;16.19;58.24;96493.84;4213767;28;5778;-70
2023/03/24 15:07:32;;;;;;;;;;;;;;;16.16;58.16;96491.66;4218804;28;5704;-71
2023/03/24 15:09:38;;;;;;;;;;;;;;;16.13;57.91;96486.81;4200396;28;5808;-70
2023/03/24 15:11:43;;;;;;;;;;;;;;;16.10;58.20;96491.81;4218305;28;5734;-71
2023/03/24 15:13:49;;;;;;;;;;;;;;;16.09;58.15;96477.66;4218885;28;5711;-71
2023/03/24 15:15:52;;;;;;;;;;;;;;;16.09;58.20;96475.00;4218898;28;5648;-71
2023/03/24 15:17:56;;;;;;;;;;;;;;;16.11;58.29;96482.75;4200608;28;6426;-70
2023/03/24 15:19:59;;;;;;;;;;;;;;;16.11;58.29;96486.25;4218457;28;5636;-71
2023/03/24 15:22:03;;;;;;;;;;;;;;;16.11;58.30;96485.44;4218970;28;5624;-71
2023/03/24 15:24:27;;;;;;;;;;;;;;;16.08;58.53;96484.03;4218943;28;5797;-70
2023/03/24 15:26:34;;;;;;;;;;;;;;;16.07;58.34;96489.59;4211692;28;5597;-70
2023/03/24 15:28:37;;;;;;;;;;;;;;;16.09;58.38;96482.19;4217719;28;5635;-70
2023/03/24 15:30:40;;;;;;;;;;;;;;;16.08;58.50;96492.03;4218749;28;5622;-71
2023/03/24 15:32:44;;;;;;;;;;;;;;;16.08;58.71;96497.34;4218350;28;5718;-72
2023/03/24 15:34:50;;;;;;;;;;;;;;;16.07;58.57;96506.41;4218720;28;5621;-71
2023/03/24 15:36:55;;;;;;;;;;;;;;;16.05;58.80;96492.50;4218221;28;5816;-70
2023/03/24 15:38:58;;;;;;;;;;;;;;;16.05;58.79;96489.03;4217947;28;5744;-71
2023/03/24 15:41:03;;;;;;;;;;;;;;;16.02;59.05;96506.31;4200284;28;5079;-71
2023/03/24 15:43:18;;;;;;;;;;;;;;;16.03;58.87;96510.59;4218556;28;5104;-70
2023/03/24 15:45:28;;;;;;;;;;;;;;;16.01;58.85;96507.34;4218496;28;5604;-71
2023/03/24 15:47:36;;;;;;;;;;;;;;;16.01;58.94;96518.00;4218213;28;6308;-71
2023/03/24 15:49:47;;;;;;;;;;;;;;;15.96;59.20;96529.38;4217826;28;6288;-71
2023/03/24 15:51:54;;;;;;;;;;;;;;;15.98;59.09;96545.97;4217651;28;6528;-71
2023/03/24 15:53:59;;;;;;;;;;;;;;;15.95;59.14;96550.94;4218342;28;5608;-71
2023/03/24 15:56:16;;;;;;;;;;;;;;;15.90;59.02;96564.16;4217712;28;5612;-71
2023/03/24 15:58:23;;;;;;;;;;;;;;;15.88;59.02;96569.72;4218198;28;5616;-71
2023/03/24 16:00:29;;;;;;;;;;;;;;;15.88;59.33;96579.56;4213716;28;5620;-70
2023/03/24 16:02:37;;;;;;;;;;;;;;;15.85;59.15;96580.81;4218182;28;5628;-71
2023/03/24 16:04:41;;;;;;;;;;;;;;;15.88;59.23;96582.25;4217862;28;5632;-71
2023/03/24 16:06:49;;;;;;;;;;;;;;;15.87;59.44;96580.63;4215128;28;5695;-70
2023/03/24 16:09:00;;;;;;;;;;;;;;;15.86;59.36;96581.66;4217596;28;5711;-70
2023/03/24 16:11:09;;;;;;;;;;;;;;;15.84;59.41;96581.06;4217780;28;5986;-70
2023/03/24 16:13:15;;;;;;;;;;;;;;;15.81;59.40;96582.34;4218139;28;5636;-71
2023/03/24 16:15:19;;;;;;;;;;;;;;;15.80;59.47;96585.25;4218221;28;5711;-70
2023/03/24 16:17:22;;;;;;;;;;;;;;;15.77;59.48;96575.88;4218060;28;5609;-71
2023/03/24 16:19:25;;;;;;;;;;;;;;;15.77;59.41;96569.72;4206029;28;5899;-71
2023/03/24 16:21:29;;;;;;;;;;;;;;;15.73;59.60;96572.81;4199706;28;5876;-71
2023/03/24 16:23:32;;;;;;;;;;;;;;;15.72;59.34;96581.06;4199543;28;5706;-70
2023/03/24 16:25:35;;;;;;;;;;;;;;;15.71;59.41;96580.25;4217573;28;5779;-70
2023/03/24 16:27:39;;;;;;;;;;;;;;;15.68;59.58;96570.06;4217767;28;5776;-72
2023/03/24 16:29:43;;;;;;;;;;;;;;;15.66;59.13;96579.31;4217639;28;5778;-69
2023/03/24 16:31:49;;;;;;;;;;;;;;;15.62;59.22;96575.47;4217720;28;5621;-70
2023/03/24 16:33:52;;;;;;;;;;;;;;;15.58;59.07;96580.44;4212673;28;5608;-70
2023/03/24 16:35:54;;;;;;;;;;;;;;;15.57;58.92;96581.47;4217496;28;5675;-70
2023/03/24 16:37:57;;;;;;;;;;;;;;;15.56;58.85;96581.72;4217385;28;5680;-71
2023/03/24 16:40:00;;;;;;;;;;;;;;;15.50;58.89;96586.09;4215816;28;6301;-70
2023/03/24 16:42:05;;;;;;;;;;;;;;;15.48;58.75;96590.84;4217200;28;5838;-71
2023/03/24 16:44:09;;;;;;;;;;;;;;;15.44;58.78;96587.03;4217688;28;5636;-72
2023/03/24 16:46:14;;;;;;;;;;;;;;;15.38;58.32;96585.25;4217605;28;5703;-71
2023/03/24 16:48:19;;;;;;;;;;;;;;;15.36;58.21;96600.66;4217440;28;5708;-70
2023/03/24 16:50:29;;;;;;;;;;;;;;;15.35;58.31;96607.03;4217260;28;5716;-71
2023/03/24 16:52:32;;;;;;;;;;;;;;;15.34;58.18;96616.06;4213690;28;5699;-70
2023/03/24 16:54:35;;;;;;;;;;;;;;;15.35;57.96;96618.50;4217371;28;5679;-71
2023/03/24 16:56:38;;;;;;;;;;;;;;;15.34;58.09;96618.72;4216821;28;5703;-71
2023/03/24 16:58:42;;;;;;;;;;;;;;;15.34;57.71;96626.72;4217008;28;5856;-71
2023/03/24 17:00:47;;;;;;;;;;;;;;;15.35;57.60;96621.16;4216035;28;5743;-71
2023/03/24 17:02:52;;;;;;;;;;;;;;;15.37;57.69;96615.59;4216770;28;5743;-71
2023/03/24 17:04:57;;;;;;;;;;;;;;;15.37;57.52;96615.59;4215960;28;5725;-70
2023/03/24 17:07:00;;;;;;;;;;;;;;;15.38;57.29;96609.22;4214285;28;5620;-70
2023/03/24 17:09:04;;;;;;;;;;;;;;;15.38;57.29;96611.91;4216618;28;5860;-71
2023/03/24 17:11:10;;;;;;;;;;;;;;;15.39;57.69;96611.66;4216297;28;7280;-71
2023/03/24 17:13:18;;;;;;;;;;;;;;;15.40;57.28;96639.09;4199029;28;7718;-71
2023/03/24 17:15:22;;;;;;;;;;;;;;;15.39;57.44;96627.66;4217271;28;5623;-70
2023/03/24 17:17:26;;;;;;;;;;;;;;;15.40;57.37;96625.78;4211135;28;5628;-71
2023/03/24 17:19:29;;;;;;;;;;;;;;;15.41;57.13;96624.78;4216698;28;5619;-71
2023/03/24 17:21:36;;;;;;;;;;;;;;;15.40;57.12;96615.13;4216366;28;5612;-71
2023/03/24 17:23:39;;;;;;;;;;;;;;;15.38;57.03;96604.72;4217205;28;6358;-70
2023/03/24 17:25:42;;;;;;;;;;;;;;;15.39;57.36;96624.97;4216419;28;5830;-71
2023/03/24 17:27:46;;;;;;;;;;;;;;;15.39;56.94;96630.31;4216941;28;6340;-70
2023/03/24 17:29:49;;;;;;;;;;;;;;;15.37;57.04;96623.59;4216627;28;5719;-69
2023/03/24 17:31:53;;;;;;;;;;;;;;;15.38;57.20;96623.34;4216678;28;5722;-69
2023/03/24 17:33:57;;;;;;;;;;;;;;;15.36;57.11;96632.63;4216542;28;5712;-69